Flight Track Log - Related Links

Times and Time Zones

All times are in EDT time to prevent confusion due to time zone crossing. See the EJA122 flight status page for this flight to view local times or setup timezone preferences in your user account.

Time Position Orientation Groundspeed Altitude Reporting Facility
EDT Latitude Longitude Course Direction KTS MPH feet Rate Location/Type
Sat 09:39:51 PM 34.1867 -118.4900 217° Southwest 156 180 1,600  Level Los Angeles Center
Sat 09:40:53 PM 34.1478 -118.5250 217° Southwest 196 226 3,400 1,951 Climbing Los Angeles Center
Sat 09:41:54 PM 34.1839 -118.5703 314° West 213 245 5,600 1,659 Climbing Los Angeles Center
Sat 09:42:56 PM 34.2494 -118.6014 339° North 246 283 6,800 1,694 Climbing Los Angeles Center
Sat 09:43:58 PM 34.3242 -118.6358 339° North 279 321 9,100 1,902 Climbing Los Angeles Center
Sat 09:44:59 PM 34.4172 -118.6789 339° North 299 344 10,700 1,268 Climbing Los Angeles Center
Sat 09:46:01 PM 34.5011 -118.7192 338° Northwest 323 372 11,700 1,024 Climbing Los Angeles Center
Sat 09:47:02 PM 34.5922 -118.7644 338° Northwest 350 403 12,800 1,268 Climbing Los Angeles Center
Sat 09:48:04 PM 34.6842 -118.8058 340° North 353 406 14,300 1,452 Climbing Los Angeles Center
Sat 09:49:06 PM 34.7756 -118.8483 339° North 352 405 15,800 1,463 Climbing Los Angeles Center
Sat 09:50:07 PM 34.8542 -118.9133 326° Northwest 346 398 17,300 1,317 Climbing Los Angeles Center
Sat 09:51:09 PM 34.9292 -118.9858 322° Northwest 344 396 18,500 1,210 Climbing Los Angeles Center
Sat 09:52:11 PM 35.0317 -119.0678 327° Northwest 367 422 19,800 1,171 Climbing Los Angeles Center
Sat 09:53:12 PM 35.1272 -119.1167 337° Northwest 376 433 20,900 1,122 Climbing Los Angeles Center
Sat 09:54:14 PM 35.2075 -119.1964 321° Northwest 380 437 22,100 1,065 Climbing Los Angeles Center
Sat 09:55:16 PM 35.2886 -119.2783 320° Northwest 378 435 23,100 1,024 Climbing Los Angeles Center
Sat 09:56:17 PM 35.3697 -119.3603 321° Northwest 380 437 24,200 1,073 Climbing Los Angeles Center
Sat 09:57:19 PM 35.4494 -119.4431 320° Northwest 379 436 25,300 1,073 Climbing Los Angeles Center
Sat 09:58:20 PM 35.5322 -119.5289 320° Northwest 386 444 26,400 1,171 Climbing Los Angeles Center
Sat 09:59:22 PM 35.6325 -119.6325 320° Northwest 395 455 27,700 1,065 Climbing Los Angeles Center
Sat 10:00:24 PM 35.7158 -119.7189 320° Northwest 394 453 28,600 829 Climbing Los Angeles Center
Sat 10:01:25 PM 35.8014 -119.8094 319° Northwest 403 464 29,400 634 Climbing Los Angeles Center
Sat 10:02:27 PM 35.8883 -119.9000 320° Northwest 410 472 29,900 293 Climbing Los Angeles Center
Sat 10:03:28 PM 35.9778 -119.9939 320° Northwest 419 482 30,000 49 Climbing Los Angeles Center
Sat 10:04:30 PM 36.0708 -120.0928 319° Northwest 432 497 30,000  Level Los Angeles Center
Sat 10:05:31 PM 36.1794 -120.2081 319° Northwest 432 497 30,000  Level Los Angeles Center
Sat 10:06:56 PM 36.3044 -120.3392 320° Northwest 429 494 30,000  Level Oakland Center
Sat 10:07:57 PM 36.3911 -120.4328 319° Northwest 420 483 30,000  Level Oakland Center
Sat 10:08:58 PM 36.4739 -120.5186 320° Northwest 395 455 30,000  Level Oakland Center
Sat 10:09:59 PM 36.5567 -120.6075 319° Northwest 395 455 30,000  Level Oakland Center
Sat 10:10:59 PM 36.6436 -120.6997 320° Northwest 406 467 30,000  Level Oakland Center
Sat 10:12:00 PM 36.7314 -120.7944 319° Northwest 415 478 30,000  Level Oakland Center
Sat 10:13:01 PM 36.8222 -120.8789 323° Northwest 414 476 30,000  Level Oakland Center
Sat 10:14:02 PM 36.9083 -120.9719 319° Northwest 410 472 30,000  Level Oakland Center
Sat 10:15:03 PM 36.9806 -121.0808 310° West 405 466 30,000 -295 Level Oakland Center
Sat 10:16:04 PM 37.0636 -121.2097 309° West 405 466 29,400 -934 Descending Oakland Center
Sat 10:17:05 PM 37.1239 -121.2992 310° West 405 466 28,100 -1,721 Descending Oakland Center
Sat 10:18:06 PM 37.2083 -121.4258 310° West 395 455 25,900 -2,066 Descending Oakland Center
Sat 10:19:07 PM 37.2758 -121.5308 309° West 387 445 23,900 -1,967 Descending Oakland Center
Sat 10:20:08 PM 37.3419 -121.6297 310° West 370 426 21,900 -1,955 Descending Oakland Center
Sat 10:21:19 PM 37.4167 -121.7333 312° West 341 392 19,600 -1,924 Descending Northern Cal TRACON
Sat 10:22:19 PM 37.4667 -121.8333 302° West 325 374 17,700 -1,950 Descending Northern Cal TRACON
Sat 10:23:19 PM 37.5333 -121.9167 315° West 315 362 15,700 -1,950 Descending Northern Cal TRACON
Sat 10:24:19 PM 37.5833 -122.0000 307° West 309 356 13,800 -1,900 Descending Northern Cal TRACON
Sat 10:25:19 PM 37.6667 -122.0333 342° North 303 349 11,900 -1,900 Descending Northern Cal TRACON
Sat 10:26:19 PM 37.7500 -122.0667 342° North 303 349 10,000 -1,831 Descending Northern Cal TRACON
Sat 10:28:16 PM 37.8883 -122.1300 340° North 282 325 6,500 -1,652 Descending Oakland Center
Sat 10:29:17 PM 37.9558 -122.1622 339° North 268 308 5,100 -738 Descending Oakland Center
Sat 10:30:18 PM 38.0139 -122.1883 340° North 234 269 5,000 -541 Descending Oakland Center
Sat 10:31:19 PM 38.0708 -122.2128 341° North 221 254 4,000 -934 Descending Oakland Center
Sat 10:32:20 PM 38.1292 -122.2122 360° North 211 243 3,100 -787 Descending Oakland Center
Sat 10:33:21 PM 38.1825 -122.2167 356° North 197 227 2,400 -738 Descending Oakland Center
Sat 10:34:22 PM 38.2294 -122.2258 351° North 160 184 1,600 -738 Descending Oakland Center
Sat 10:35:23 PM 38.2539 -122.2536 318° Northwest 157 181 900 -689 Descending Oakland Center

Login

Don't have an account? Register now (free) for customized features, flight alerts, and more!